createdAt,value
2022-10-17T05:43:13.566Z,61.1
2022-10-17T05:48:54.148Z,61.1
2022-10-17T05:54:59.451Z,61
2022-10-17T06:01:03.062Z,60.9
2022-10-17T06:06:26.667Z,60.9
2022-10-17T06:12:03.135Z,60.8
2022-10-17T06:17:46.463Z,60.8
2022-10-17T06:23:25.153Z,60.8
2022-10-17T06:29:08.135Z,60.7
2022-10-17T06:34:49.047Z,60.6
2022-10-17T06:40:27.710Z,60.6
2022-10-17T06:46:04.447Z,60.5
2022-10-17T06:51:42.521Z,60.4
2022-10-17T06:57:20.513Z,60.3
2022-10-17T07:02:59.721Z,60.3
2022-10-17T07:08:41.275Z,60.2
2022-10-17T07:14:19.302Z,60.1
2022-10-17T07:19:56.591Z,60.1
2022-10-17T07:25:37.855Z,60
2022-10-17T07:31:18.063Z,59.9
2022-10-17T07:36:54.526Z,59.9
2022-10-17T07:42:17.462Z,59.9
2022-10-17T07:47:55.659Z,59.7
2022-10-17T07:53:33.445Z,59.4
2022-10-17T07:59:11.480Z,59.3
2022-10-17T08:04:54.592Z,59.1
2022-10-17T08:10:46.906Z,59
2022-10-17T08:16:24.594Z,58.9
2022-10-17T08:22:06.187Z,58.9
2022-10-17T08:27:32.650Z,58.8
2022-10-17T08:33:15.837Z,58.7
2022-10-17T08:38:27.511Z,58.6
2022-10-17T08:49:02.885Z,58.5
2022-10-17T08:54:25.854Z,58.4
2022-10-17T09:00:11.914Z,57.9
2022-10-17T09:05:36.777Z,58.1
2022-10-17T09:15:52.196Z,59.1
2022-10-17T09:21:14.178Z,59.8
2022-10-17T09:26:49.348Z,60.4
2022-10-17T09:32:40.278Z,61
2022-10-17T09:38:32.229Z,61.8
2022-10-17T09:44:05.368Z,62.4
2022-10-17T09:49:46.466Z,63
2022-10-17T16:02:43.070Z,71.8
2022-10-17T16:08:27.166Z,71.7
2022-10-17T16:14:06.313Z,71.6
2022-10-17T16:19:48.424Z,71.6
2022-10-17T16:25:12.837Z,71.5
2022-10-17T16:30:58.852Z,71.4
2022-10-17T16:36:11.850Z,71.4
2022-10-17T16:41:53.549Z,71.3
2022-10-17T16:47:36.277Z,71.3
2022-10-17T16:53:09.738Z,71.2
2022-10-17T16:58:51.026Z,71.1
2022-10-17T17:04:34.330Z,71
2022-10-17T17:09:58.741Z,70.9
2022-10-17T17:15:24.036Z,70.8
2022-10-17T17:20:50.006Z,70.8
2022-10-17T17:26:14.093Z,70.7
2022-10-17T17:31:23.779Z,70.6
2022-10-17T17:37:09.579Z,70.6
2022-10-17T17:42:34.608Z,70.5
2022-10-17T17:48:18.280Z,70.4
2022-10-17T17:54:05.623Z,70.4
2022-10-17T17:59:49.685Z,70.3
2022-10-17T18:05:04.744Z,70.3
2022-10-17T18:10:48.850Z,70.2
2022-10-17T18:16:30.227Z,70.1
2022-10-17T18:22:16.671Z,70.1
2022-10-17T18:27:58.660Z,70
2022-10-17T18:33:29.030Z,69.9
2022-10-17T18:39:00.956Z,69.9
2022-10-17T18:44:42.578Z,69.8
2022-10-17T18:50:32.491Z,69.8
2022-10-17T18:56:15.167Z,69.7
2022-10-17T19:02:02.592Z,69.6
2022-10-17T19:07:15.564Z,69.5
2022-10-17T19:12:58.474Z,69.4
2022-10-17T19:18:31.894Z,69.4
2022-10-17T19:24:00.818Z,69.3
2022-10-17T19:29:45.214Z,69.3
2022-10-17T19:35:17.698Z,69.3
2022-10-17T19:41:05.202Z,69.1
2022-10-17T19:46:48.421Z,69.1
2022-10-17T19:52:14.121Z,69.1
2022-10-17T19:58:00.466Z,68.9
2022-10-17T20:03:44.721Z,68.9
2022-10-17T20:09:49.029Z,68.8
